Time;durP1;ratioP1;P1;durP2;ratioP2;P2;SDS_P1;SDS_P2;PMS_P1;PMS_P2;Temp;Humidity;BMP_temperature;BMP_pressure;BME280_temperature;BME280_humidity;BME280_pressure;Samples;Min_cycle;Max_cycle;Signal;HPM_P1;HPM_P2
2022/07/15 00:01:04;;;;;;;4.97;2.08;;;23.00;64.80;;;;;;5031577;28;20148;-63
2022/07/15 00:03:29;;;;;;;5.28;1.88;;;23.00;64.80;;;;;;5032286;28;20045;-63
2022/07/15 00:05:55;;;;;;;4.40;1.90;;;23.00;64.80;;;;;;5030853;28;20046;-63
2022/07/15 00:08:20;;;;;;;5.80;1.92;;;23.00;64.80;;;;;;5031943;28;20037;-63
2022/07/15 00:10:46;;;;;;;5.45;2.00;;;23.00;64.80;;;;;;5032113;28;20045;-63
2022/07/15 00:13:11;;;;;;;5.45;2.20;;;23.00;64.70;;;;;;5031118;28;20041;-63
2022/07/15 00:15:37;;;;;;;6.90;1.90;;;22.90;64.70;;;;;;5032065;28;20557;-63
2022/07/15 00:18:03;;;;;;;5.60;1.95;;;23.00;64.70;;;;;;5031717;28;20494;-63
2022/07/15 00:20:33;;;;;;;4.68;1.40;;;22.90;64.60;;;;;;5031134;28;20382;-62
2022/07/15 00:23:03;;;;;;;7.13;2.00;;;22.90;64.60;;;;;;5031989;28;20049;-62
2022/07/15 00:25:28;;;;;;;4.93;1.90;;;22.90;64.60;;;;;;5031256;28;20107;-62
2022/07/15 00:27:58;;;;;;;4.75;1.63;;;22.90;64.50;;;;;;5031473;28;20037;-63
2022/07/15 00:30:27;;;;;;;4.65;1.77;;;22.90;64.50;;;;;;5031638;28;20057;-62
2022/07/15 00:32:53;;;;;;;3.53;1.23;;;22.90;64.50;;;;;;5030958;28;20058;-63
2022/07/15 00:35:18;;;;;;;4.78;1.52;;;22.90;64.50;;;;;;5032778;28;20038;-63
2022/07/15 00:37:44;;;;;;;5.43;1.75;;;22.90;64.50;;;;;;5035613;28;20473;-63
2022/07/15 00:40:10;;;;;;;4.05;1.60;;;22.90;64.50;;;;;;5034846;28;20034;-63
2022/07/15 00:42:45;;;;;;;4.95;2.00;;;22.90;64.50;;;;;;5035501;28;20152;-63
2022/07/15 00:45:15;;;;;;;3.10;1.42;;;22.80;64.40;;;;;;5035549;28;20375;-63
2022/07/15 00:47:44;;;;;;;5.38;1.60;;;22.90;64.50;;;;;;5034428;28;20486;-63
2022/07/15 00:50:10;;;;;;;5.38;1.60;;;22.90;64.40;;;;;;5035366;28;20539;-63
2022/07/15 00:52:38;;;;;;;4.20;1.27;;;22.80;64.40;;;;;;5067351;28;20045;-63
2022/07/15 00:55:06;;;;;;;5.07;1.55;;;22.80;64.40;;;;;;5032992;28;20116;-63
2022/07/15 00:57:31;;;;;;;2.28;1.13;;;22.80;64.40;;;;;;5034378;28;20053;-63
2022/07/15 00:59:57;;;;;;;2.90;1.20;;;22.80;64.40;;;;;;5033545;28;20033;-63
2022/07/15 01:02:22;;;;;;;5.35;1.70;;;22.80;64.30;;;;;;5033204;28;20049;-63
2022/07/15 01:04:48;;;;;;;3.88;1.10;;;22.80;64.30;;;;;;5033895;28;20049;-63
2022/07/15 01:07:14;;;;;;;2.78;1.15;;;22.80;64.30;;;;;;5035297;28;20038;-63
2022/07/15 01:09:39;;;;;;;3.08;1.15;;;22.80;64.40;;;;;;5033219;28;20045;-63
2022/07/15 01:12:05;;;;;;;3.72;1.35;;;22.80;64.30;;;;;;5035432;28;20512;-63
2022/07/15 01:14:31;;;;;;;4.47;1.40;;;22.80;64.30;;;;;;5034346;28;20445;-63
2022/07/15 01:16:56;;;;;;;3.85;1.23;;;22.80;64.30;;;;;;5034679;28;20492;-63
2022/07/15 01:19:22;;;;;;;3.90;1.02;;;22.80;64.30;;;;;;5034958;28;20044;-63
2022/07/15 01:21:47;;;;;;;5.28;1.38;;;22.80;64.20;;;;;;5033971;28;20708;-63
2022/07/15 01:24:13;;;;;;;3.15;1.10;;;22.80;64.20;;;;;;5034732;28;20057;-63
2022/07/15 01:26:38;;;;;;;3.90;1.65;;;22.80;64.20;;;;;;5066891;28;20452;-63
2022/07/15 01:29:04;;;;;;;3.83;1.30;;;22.80;64.20;;;;;;5033748;28;20050;-63
2022/07/15 01:31:29;;;;;;;3.00;1.10;;;22.80;64.20;;;;;;5034750;28;20068;-63
2022/07/15 01:33:55;;;;;;;4.22;1.30;;;22.70;64.10;;;;;;5034185;28;20041;-63
2022/07/15 01:36:21;;;;;;;3.20;1.35;;;22.70;64.10;;;;;;5033836;28;20057;-63
2022/07/15 01:38:46;;;;;;;3.05;1.40;;;22.70;64.10;;;;;;5033915;28;20045;-63
2022/07/15 01:41:12;;;;;;;3.65;1.02;;;22.70;64.10;;;;;;5034648;28;20084;-63
2022/07/15 01:43:37;;;;;;;3.60;1.10;;;22.70;64.10;;;;;;5033589;28;20370;-64
2022/07/15 01:46:03;;;;;;;5.35;1.17;;;22.70;64.10;;;;;;5033745;28;20516;-63
2022/07/15 01:51:12;;;;;;;3.45;1.10;;;22.70;64.10;;;;;;5032450;28;20046;-64
2022/07/15 01:53:38;;;;;;;3.40;1.38;;;22.70;64.10;;;;;;5034525;28;20042;-63
2022/07/15 01:56:04;;;;;;;4.05;1.30;;;22.70;64.10;;;;;;5034043;28;20048;-64
2022/07/15 01:58:29;;;;;;;3.47;1.00;;;22.70;64.10;;;;;;5033750;28;20041;-63
2022/07/15 02:00:55;;;;;;;3.00;1.08;;;22.70;64.00;;;;;;5033928;28;20045;-63
2022/07/15 02:03:21;;;;;;;4.45;1.20;;;22.70;64.10;;;;;;5034078;28;20140;-63
2022/07/15 02:05:46;;;;;;;3.47;1.00;;;22.70;64.00;;;;;;5032407;28;20374;-64
2022/07/15 02:08:12;;;;;;;4.10;1.30;;;22.70;64.00;;;;;;5034161;28;20049;-64
2022/07/15 02:10:40;;;;;;;3.10;0.90;;;22.70;64.00;;;;;;5033840;28;20042;-63
2022/07/15 02:13:06;;;;;;;;;;;22.70;64.00;;;;;;5033849;28;20057;-63
2022/07/15 02:15:33;;;;;;;5.88;1.35;;;22.60;63.90;;;;;;5034105;28;19987;-63
2022/07/15 02:17:59;;;;;;;3.58;1.00;;;22.60;64.00;;;;;;5032566;28;20048;-63
2022/07/15 02:20:24;;;;;;;2.30;0.85;;;22.60;64.00;;;;;;5033997;28;20045;-63
2022/07/15 02:22:50;;;;;;;3.92;1.02;;;22.60;64.00;;;;;;5033639;28;20049;-63
2022/07/15 02:25:15;;;;;;;3.53;1.35;;;22.60;63.90;;;;;;5033126;28;20049;-63
2022/07/15 02:27:41;;;;;;;3.25;0.82;;;22.60;63.90;;;;;;5033644;28;20119;-64
2022/07/15 02:30:07;;;;;;;3.80;1.15;;;22.60;63.90;;;;;;5033410;28;20124;-64
2022/07/15 02:32:32;;;;;;;4.38;1.20;;;22.60;64.00;;;;;;5032823;28;20374;-64
2022/07/15 02:34:58;;;;;;;7.80;1.17;;;22.60;63.90;;;;;;5033385;28;20067;-63
2022/07/15 02:37:24;;;;;;;4.43;1.00;;;22.60;63.90;;;;;;5033548;28;20536;-64
2022/07/15 02:39:49;;;;;;;3.00;1.10;;;22.60;63.90;;;;;;5032542;28;20046;-63
2022/07/15 02:42:15;;;;;;;2.97;0.80;;;22.50;63.80;;;;;;5033257;28;20045;-64
2022/07/15 02:44:40;;;;;;;2.17;0.90;;;22.60;63.90;;;;;;5033027;28;20037;-63
2022/07/15 02:47:06;;;;;;;3.90;0.95;;;22.50;63.80;;;;;;5032298;28;20106;-63
2022/07/15 02:49:32;;;;;;;4.03;1.23;;;22.60;63.90;;;;;;5033438;28;20041;-64
2022/07/15 02:51:58;;;;;;;2.45;1.13;;;22.60;63.90;;;;;;5033211;28;20091;-64
2022/07/15 02:54:23;;;;;;;2.53;0.95;;;22.50;63.80;;;;;;5032671;28;20041;-63
2022/07/15 02:56:49;;;;;;;2.58;0.80;;;22.50;63.80;;;;;;5032760;28;20038;-63
2022/07/15 02:59:14;;;;;;;2.63;1.02;;;22.50;63.70;;;;;;5032842;28;20042;-64
2022/07/15 03:01:40;;;;;;;1.92;1.02;;;22.50;63.80;;;;;;5031963;28;20081;-63
2022/07/15 03:04:06;;;;;;;2.78;0.90;;;22.50;63.80;;;;;;5032934;28;20129;-66
2022/07/15 03:06:33;;;;;;;2.83;0.77;;;22.50;63.80;;;;;;5032907;28;20050;-63
2022/07/15 03:08:59;;;;;;;2.47;0.93;;;22.50;63.80;;;;;;5031945;28;20045;-64
2022/07/15 03:11:24;;;;;;;3.88;0.90;;;22.50;63.80;;;;;;5032790;28;20041;-64
2022/07/15 03:13:50;;;;;;;2.30;0.90;;;22.50;63.80;;;;;;5031279;28;20505;-64
2022/07/15 03:16:15;;;;;;;3.45;0.90;;;22.50;63.80;;;;;;5031967;28;20088;-63
2022/07/15 03:18:41;;;;;;;3.25;0.80;;;22.50;63.70;;;;;;5032191;28;20069;-63
2022/07/15 03:21:07;;;;;;;2.90;0.90;;;22.50;63.80;;;;;;5031892;28;20136;-63
2022/07/15 03:23:32;;;;;;;2.67;0.85;;;22.50;63.80;;;;;;5031472;28;20064;-63
2022/07/15 03:25:58;;;;;;;3.55;0.80;;;22.50;63.70;;;;;;5032569;28;20060;-63
2022/07/15 03:28:23;;;;;;;2.65;0.77;;;22.50;63.80;;;;;;5030564;28;20084;-64
2022/07/15 03:30:49;;;;;;;2.63;0.80;;;22.50;63.70;;;;;;5030617;28;20061;-63
2022/07/15 03:33:14;;;;;;;2.47;0.70;;;22.50;63.80;;;;;;5032335;28;20041;-63
2022/07/15 03:35:41;;;;;;;5.05;0.90;;;22.50;63.70;;;;;;5031747;28;20108;-63
2022/07/15 03:38:07;;;;;;;2.28;0.80;;;22.50;63.70;;;;;;5032694;28;20033;-63
2022/07/15 03:40:32;;;;;;;3.75;1.17;;;22.50;63.80;;;;;;5032510;28;20045;-63
2022/07/15 03:42:59;;;;;;;3.50;1.05;;;22.40;63.70;;;;;;5031444;28;20069;-63
2022/07/15 03:45:25;;;;;;;4.07;0.93;;;22.40;63.70;;;;;;5032552;28;20041;-63
2022/07/15 03:47:50;;;;;;;2.10;0.90;;;22.40;63.70;;;;;;5031710;28;20052;-63
2022/07/15 03:50:16;;;;;;;2.83;1.05;;;22.40;63.70;;;;;;5031883;28;20041;-63
2022/07/15 03:52:41;;;;;;;2.05;0.70;;;22.40;63.70;;;;;;5063972;28;20045;-63
2022/07/15 03:55:09;;;;;;;3.10;1.08;;;22.40;63.70;;;;;;5032523;28;20065;-63
2022/07/15 03:57:35;;;;;;;1.75;0.70;;;22.40;64.30;;;;;;5031739;28;20045;-63
2022/07/15 04:00:00;;;;;;;1.55;0.77;;;22.40;63.70;;;;;;5032062;28;20469;-63
2022/07/15 04:02:26;;;;;;;4.18;1.00;;;22.40;63.70;;;;;;5025078;28;20045;-63
2022/07/15 04:04:52;;;;;;;3.17;0.70;;;22.40;63.70;;;;;;5030605;28;20041;-63
2022/07/15 04:07:17;;;;;;;1.90;0.68;;;22.40;63.70;;;;;;5031414;28;20049;-63
2022/07/15 04:09:43;;;;;;;2.17;0.68;;;22.40;63.70;;;;;;5032085;28;20048;-63
2022/07/15 04:12:10;;;;;;;3.50;0.98;;;22.40;63.80;;;;;;5035134;28;20103;-63
2022/07/15 04:14:35;;;;;;;2.25;0.80;;;22.40;63.80;;;;;;5036352;28;20045;-63
2022/07/15 04:17:01;;;;;;;2.20;0.75;;;22.40;63.80;;;;;;5035584;28;20037;-63
2022/07/15 04:19:27;;;;;;;3.13;0.75;;;22.40;63.80;;;;;;5035371;28;20496;-63
2022/07/15 04:21:52;;;;;;;3.80;0.80;;;22.40;63.80;;;;;;5035889;28;20080;-63
2022/07/15 04:24:18;;;;;;;2.80;0.70;;;22.40;63.80;;;;;;5036110;28;20068;-63
2022/07/15 04:26:43;;;;;;;2.28;0.70;;;22.40;63.80;;;;;;5034865;28;20456;-63
2022/07/15 04:29:09;;;;;;;1.80;0.60;;;22.40;63.80;;;;;;5035724;28;20494;-63
2022/07/15 04:31:34;;;;;;;1.10;0.52;;;22.40;63.80;;;;;;5034598;28;20493;-63
2022/07/15 04:34:00;;;;;;;3.92;0.82;;;22.40;63.90;;;;;;5035788;28;20096;-63
2022/07/15 04:36:25;;;;;;;2.35;0.77;;;22.40;64.00;;;;;;5035871;28;20120;-63
2022/07/15 04:38:51;;;;;;;1.50;0.65;;;22.40;64.50;;;;;;5034699;28;20125;-63
2022/07/15 04:41:17;;;;;;;3.28;0.70;;;22.40;64.00;;;;;;5036005;28;20091;-63
2022/07/15 04:43:42;;;;;;;1.50;0.60;;;22.40;64.10;;;;;;5035452;28;20463;-63
2022/07/15 04:46:08;;;;;;;2.28;0.50;;;22.40;64.20;;;;;;5034477;28;20041;-63
2022/07/15 04:51:17;;;;;;;2.70;0.63;;;22.40;64.30;;;;;;5035817;28;20046;-63
2022/07/15 04:53:43;;;;;;;2.00;0.60;;;22.40;64.30;;;;;;5034551;28;20045;-63
2022/07/15 04:56:08;;;;;;;2.00;0.60;;;22.40;64.30;;;;;;5035453;28;20045;-63
2022/07/15 04:58:34;;;;;;;1.90;0.50;;;22.40;64.30;;;;;;5035208;28;20071;-63
2022/07/15 05:01:00;;;;;;;2.42;0.85;;;22.40;64.20;;;;;;5034456;28;20084;-63
2022/07/15 05:03:25;;;;;;;1.25;0.55;;;22.50;64.30;;;;;;5035187;28;20052;-63
2022/07/15 05:05:51;;;;;;;2.53;0.70;;;22.50;64.10;;;;;;5034751;28;20478;-63
2022/07/15 05:08:16;;;;;;;2.35;0.65;;;22.50;64.10;;;;;;5034651;28;20048;-64
2022/07/15 05:10:42;;;;;;;3.17;0.88;;;22.40;64.00;;;;;;5035189;28;20083;-63
2022/07/15 05:13:07;;;;;;;2.03;0.70;;;22.40;64.00;;;;;;5034919;28;20095;-63
2022/07/15 05:15:34;;;;;;;2.78;0.65;;;22.40;64.00;;;;;;5034128;28;20128;-63
2022/07/15 05:17:59;;;;;;;1.70;0.50;;;22.40;64.00;;;;;;5035031;28;20532;-63
2022/07/15 05:20:25;;;;;;;3.03;0.70;;;22.40;63.90;;;;;;5035093;28;20524;-63
2022/07/15 05:22:50;;;;;;;2.33;0.68;;;22.40;63.90;;;;;;5033755;28;20511;-63
2022/07/15 05:25:16;;;;;;;3.05;0.60;;;22.40;63.90;;;;;;5035133;28;20045;-63
2022/07/15 05:27:41;;;;;;;1.65;0.50;;;22.40;63.90;;;;;;5033551;28;20048;-63
2022/07/15 05:30:08;;;;;;;2.90;0.70;;;22.40;63.90;;;;;;5034579;28;20065;-63
2022/07/15 05:32:33;;;;;;;1.90;0.57;;;22.40;63.90;;;;;;5034587;28;20049;-63
2022/07/15 05:34:59;;;;;;;2.47;0.70;;;22.40;63.90;;;;;;5065638;28;20160;-64
2022/07/15 05:37:24;;;;;;;3.03;0.80;;;22.40;63.90;;;;;;5034525;28;20116;-63
2022/07/15 05:39:53;;;;;;;2.10;0.68;;;22.30;63.80;;;;;;5066162;28;20083;-63
2022/07/15 05:42:21;;;;;;;2.17;0.55;;;22.40;63.80;;;;;;5034055;28;20128;-62
2022/07/15 05:44:47;;;;;;;3.03;0.63;;;22.40;63.80;;;;;;5066226;28;20046;-64
2022/07/15 05:47:13;;;;;;;2.58;0.70;;;22.30;63.80;;;;;;5034335;28;20049;-65
2022/07/15 05:49:39;;;;;;;1.90;0.63;;;22.40;63.80;;;;;;5033834;28;20120;-65
2022/07/15 05:52:05;;;;;;;3.55;0.73;;;22.40;63.80;;;;;;5034227;28;20116;-65
2022/07/15 05:54:30;;;;;;;3.28;0.80;;;22.40;63.80;;;;;;5034214;28;20119;-66
2022/07/15 05:56:56;;;;;;;3.80;0.80;;;22.40;63.90;;;;;;5033114;28;20041;-64
2022/07/15 05:59:21;;;;;;;2.88;0.85;;;22.30;63.90;;;;;;5034394;28;20044;-65
2022/07/15 06:01:47;;;;;;;1.95;0.65;;;22.40;64.00;;;;;;5033885;28;20094;-65
2022/07/15 06:04:13;;;;;;;3.10;0.70;;;22.40;64.00;;;;;;5033285;28;20093;-64
2022/07/15 06:06:39;;;;;;;4.28;0.90;;;22.40;64.00;;;;;;5034127;28;20133;-64
2022/07/15 06:09:04;;;;;;;4.63;0.80;;;22.40;64.00;;;;;;5034145;28;20049;-64
2022/07/15 06:11:30;;;;;;;2.75;0.75;;;22.40;64.00;;;;;;5033258;28;20045;-64
2022/07/15 06:13:56;;;;;;;5.60;1.20;;;22.40;64.10;;;;;;5033825;28;20042;-64
2022/07/15 06:16:21;;;;;;;4.30;0.60;;;22.40;64.20;;;;;;5034011;28;20052;-64
2022/07/15 06:18:48;;;;;;;3.80;0.80;;;22.40;64.30;;;;;;5065110;28;20493;-64
2022/07/15 06:21:14;;;;;;;5.10;0.70;;;22.40;64.20;;;;;;5033509;28;20326;-65
2022/07/15 06:23:39;;;;;;;4.13;0.90;;;22.40;64.80;;;;;;5033975;28;20042;-65
2022/07/15 06:26:05;;;;;;;3.55;0.70;;;22.40;64.20;;;;;;5032747;28;20044;-65
2022/07/15 06:28:32;;;;;;;3.05;0.80;;;22.50;64.20;;;;;;5033915;28;20045;-65
2022/07/15 06:30:57;;;;;;;3.78;0.93;;;22.50;64.40;;;;;;5030623;28;20049;-64
2022/07/15 06:33:24;;;;;;;4.40;0.80;;;22.50;64.40;;;;;;5029886;28;20115;-65
2022/07/15 06:35:50;;;;;;;5.25;0.98;;;22.50;64.40;;;;;;5032925;28;20103;-64
2022/07/15 06:38:15;;;;;;;4.75;0.90;;;22.50;64.50;;;;;;5031569;28;20037;-64
2022/07/15 06:40:41;;;;;;;4.25;0.70;;;22.50;64.50;;;;;;5033288;28;20042;-65
2022/07/15 06:43:06;;;;;;;1.70;0.60;;;22.50;64.50;;;;;;5033591;28;20438;-64
2022/07/15 06:45:32;;;;;;;4.28;0.70;;;22.50;64.50;;;;;;5032396;28;20049;-65
2022/07/15 06:47:57;;;;;;;3.72;1.05;;;22.60;64.60;;;;;;5033235;28;20075;-64
2022/07/15 06:50:24;;;;;;;4.07;0.90;;;22.50;64.60;;;;;;5033431;28;20150;-65
2022/07/15 06:52:50;;;;;;;2.72;0.60;;;22.60;64.60;;;;;;5032259;28;20037;-65
2022/07/15 06:55:15;;;;;;;3.67;0.60;;;22.60;64.60;;;;;;5033394;28;20551;-64
2022/07/15 06:57:41;;;;;;;3.60;0.60;;;22.60;64.60;;;;;;5032974;28;20041;-63
2022/07/15 07:00:09;;;;;;;2.33;0.77;;;22.70;64.50;;;;;;5032493;28;20041;-64
2022/07/15 07:02:34;;;;;;;2.17;0.50;;;22.70;64.40;;;;;;5033099;28;20053;-65
2022/07/15 07:05:00;;;;;;;7.20;1.00;;;22.60;64.20;;;;;;5032734;28;20052;-64
2022/07/15 07:07:25;;;;;;;4.57;0.60;;;22.70;64.00;;;;;;5032191;28;20402;-65
2022/07/15 07:09:51;;;;;;;7.00;0.65;;;22.70;63.90;;;;;;5032689;28;20041;-64
2022/07/15 07:12:17;;;;;;;3.10;0.70;;;22.70;64.00;;;;;;5033098;28;20045;-66
2022/07/15 07:14:43;;;;;;;3.45;0.77;;;22.70;64.10;;;;;;5032054;28;20056;-65
2022/07/15 07:17:08;;;;;;;4.07;0.93;;;22.70;64.10;;;;;;5032788;28;20045;-64
2022/07/15 07:19:34;;;;;;;2.55;0.60;;;22.70;64.10;;;;;;5032912;28;20041;-64
2022/07/15 07:21:59;;;;;;;2.75;0.50;;;22.70;64.10;;;;;;5031562;28;20048;-64
2022/07/15 07:24:25;;;;;;;5.78;0.70;;;22.70;64.30;;;;;;5032771;28;20045;-64
2022/07/15 07:26:51;;;;;;;5.22;0.60;;;22.80;64.30;;;;;;5031617;28;20033;-66
2022/07/15 07:29:22;;;;;;;1.88;0.60;;;22.80;64.20;;;;;;5031788;28;20095;-64
2022/07/15 07:31:48;;;;;;;2.63;0.70;;;22.80;64.10;;;;;;5032346;28;20045;-64
2022/07/15 07:34:14;;;;;;;5.47;0.60;;;22.70;64.10;;;;;;5032469;28;20041;-64
2022/07/15 07:36:39;;;;;;;4.00;0.70;;;22.80;64.00;;;;;;5032221;28;20400;-65
2022/07/15 07:39:05;;;;;;;4.20;0.70;;;22.80;63.90;;;;;;5032116;28;20041;-65
2022/07/15 07:41:30;;;;;;;3.20;0.60;;;22.80;63.90;;;;;;5031589;28;20041;-66
2022/07/15 07:43:56;;;;;;;4.75;0.60;;;22.80;63.80;;;;;;5032132;28;20037;-65
2022/07/15 07:46:22;;;;;;;3.03;0.50;;;22.80;63.90;;;;;;5031428;28;20049;-66
2022/07/15 07:48:48;;;;;;;3.10;0.50;;;22.80;63.90;;;;;;5031299;28;20500;-66
2022/07/15 07:51:14;;;;;;;4.07;0.55;;;22.80;63.90;;;;;;5032662;28;20053;-66
2022/07/15 07:53:40;;;;;;;3.08;0.50;;;22.80;64.10;;;;;;5031851;28;20120;-66
2022/07/15 07:56:06;;;;;;;1.52;0.43;;;22.80;63.80;;;;;;5031280;28;20148;-65
2022/07/15 07:58:31;;;;;;;2.70;0.40;;;22.80;63.70;;;;;;5032022;28;20033;-63
2022/07/15 08:00:57;;;;;;;2.20;0.35;;;22.80;63.60;;;;;;5031711;28;20065;-63
2022/07/15 08:03:23;;;;;;;1.40;0.40;;;22.90;63.50;;;;;;5031447;28;20492;-63
2022/07/15 08:05:48;;;;;;;2.15;0.38;;;22.90;63.30;;;;;;5031924;28;20477;-63
2022/07/15 08:08:19;;;;;;;2.95;0.52;;;22.90;63.20;;;;;;5032175;28;20132;-63
2022/07/15 08:10:46;;;;;;;3.67;0.60;;;22.90;63.10;;;;;;5030110;28;20178;-63
2022/07/15 08:13:12;;;;;;;3.15;0.70;;;22.90;63.00;;;;;;5032152;28;20120;-62
2022/07/15 08:15:39;;;;;;;2.58;0.57;;;22.90;63.00;;;;;;5031764;28;20041;-61
2022/07/15 08:18:04;;;;;;;5.00;0.60;;;22.90;62.90;;;;;;5031470;28;20057;-64
2022/07/15 08:20:31;;;;;;;4.80;0.50;;;22.90;62.90;;;;;;5032071;28;20048;-65
2022/07/15 08:23:00;;;;;;;2.38;0.50;;;22.90;63.00;;;;;;5029923;28;20033;-65
2022/07/15 08:25:27;;;;;;;3.50;0.50;;;22.90;63.20;;;;;;5011842;28;20042;-65
2022/07/15 08:27:52;;;;;;;2.45;0.40;;;22.90;63.20;;;;;;5011888;28;20061;-65
2022/07/15 08:30:18;;;;;;;5.20;0.45;;;22.90;63.30;;;;;;5011849;28;20129;-66
2022/07/15 08:32:43;;;;;;;3.25;0.40;;;22.90;63.30;;;;;;5010486;28;20177;-65
2022/07/15 08:35:09;;;;;;;4.18;0.50;;;22.90;63.30;;;;;;5012547;28;20041;-64
2022/07/15 08:37:34;;;;;;;2.47;0.88;;;22.90;63.20;;;;;;5011185;28;20100;-64
2022/07/15 08:40:00;;;;;;;1.67;0.40;;;22.90;63.20;;;;;;5011833;28;20049;-63
2022/07/15 08:42:26;;;;;;;7.78;0.60;;;22.90;63.30;;;;;;5012093;28;20046;-63
2022/07/15 08:44:53;;;;;;;5.03;0.60;;;23.00;63.30;;;;;;5011091;28;20044;-63
2022/07/15 08:47:19;;;;;;;2.85;0.50;;;23.00;63.30;;;;;;5011485;28;20048;-63
2022/07/15 08:49:45;;;;;;;5.25;0.90;;;23.00;63.20;;;;;;4994024;28;20128;-62
2022/07/15 08:52:11;;;;;;;6.75;0.60;;;23.00;63.20;;;;;;5009987;28;20068;-62
2022/07/15 08:54:37;;;;;;;4.78;0.47;;;23.00;63.10;;;;;;5011056;28;20445;-62
2022/07/15 08:57:02;;;;;;;3.92;0.57;;;23.00;63.10;;;;;;5019302;28;20072;-62
2022/07/15 08:59:28;;;;;;;5.68;0.60;;;23.00;63.10;;;;;;5034511;28;20107;-61
2022/07/15 09:02:13;;;;;;;1.52;0.40;;;23.00;63.00;;;;;;5034260;28;20048;-62
2022/07/15 09:05:16;;;;;;;6.00;0.60;;;23.00;63.00;;;;;;5034822;28;20080;-62
2022/07/15 09:07:49;;;;;;;6.30;1.05;;;23.00;63.00;;;;;;5014686;28;20091;-64
2022/07/15 09:10:15;;;;;;;2.63;0.47;;;23.00;63.00;;;;;;5015891;28;20050;-64
2022/07/15 09:12:42;;;;;;;1.67;0.38;;;23.00;62.90;;;;;;5015451;28;20045;-64
2022/07/15 09:15:07;;;;;;;3.60;0.60;;;23.00;62.70;;;;;;5015370;28;20053;-64
2022/07/15 09:17:33;;;;;;;1.23;0.43;;;23.00;62.50;;;;;;5015591;28;20375;-63
2022/07/15 09:20:09;;;;;;;3.60;0.50;;;23.00;62.40;;;;;;5033168;28;20045;-63
2022/07/15 09:22:59;;;;;;;4.45;0.63;;;23.00;62.50;;;;;;5033760;28;20072;-64
2022/07/15 09:25:25;;;;;;;6.65;0.57;;;23.00;62.50;;;;;;5031928;28;20052;-64
2022/07/15 09:27:50;;;;;;;4.20;0.70;;;23.00;62.50;;;;;;5032791;28;20041;-62
2022/07/15 09:33:52;;;;;;;2.55;0.40;;;23.00;62.60;;;;;;5035209;28;20501;-63
2022/07/15 09:36:15;;;;;;;1.65;0.47;;;23.00;62.70;;;;;;5034904;28;20058;-63
2022/07/15 09:38:52;;;;;;;4.10;0.60;;;23.00;62.60;;;;;;5034718;28;20046;-63
2022/07/15 09:41:36;;;;;;;0.90;0.37;;;23.00;62.50;;;;;;5034101;28;20053;-63
2022/07/15 09:44:17;;;;;;;1.20;0.40;;;23.00;62.50;;;;;;5034746;28;20049;-62
2022/07/15 09:46:52;;;;;;;3.38;0.43;;;23.00;62.50;;;;;;5033094;28;20143;-62
2022/07/15 09:49:33;;;;;;;4.32;0.55;;;23.00;62.50;;;;;;5034564;28;20064;-64
2022/07/15 09:51:59;;;;;;;3.22;0.57;;;23.00;62.50;;;;;;5034282;28;20124;-65
2022/07/15 09:54:30;;;;;;;8.27;0.50;;;23.00;62.60;;;;;;5034383;28;20420;-63
2022/07/15 09:56:57;;;;;;;2.35;0.30;;;23.00;62.50;;;;;;5033836;28;20107;-63
2022/07/15 09:59:23;;;;;;;2.33;0.60;;;23.00;62.50;;;;;;5034637;28;20041;-62
2022/07/15 10:01:48;;;;;;;3.85;0.60;;;23.00;62.60;;;;;;5034012;28;20040;-63
2022/07/15 10:04:18;;;;;;;2.45;0.45;;;23.00;62.60;;;;;;5033804;28;20041;-62
2022/07/15 10:06:44;;;;;;;3.15;0.63;;;23.00;62.60;;;;;;5033926;28;20481;-63
2022/07/15 10:09:10;;;;;;;3.10;0.50;;;23.00;62.60;;;;;;5013768;28;20029;-62
2022/07/15 10:11:47;;;;;;;3.00;0.60;;;23.00;62.50;;;;;;5033481;28;20045;-63
2022/07/15 10:14:24;;;;;;;5.25;0.90;;;22.90;62.50;;;;;;5033476;28;20034;-63
2022/07/15 10:17:13;;;;;;;3.45;0.57;;;23.00;62.50;;;;;;5031901;28;20572;-63
2022/07/15 10:19:59;;;;;;;4.75;0.60;;;22.90;62.40;;;;;;5032861;28;20067;-63
2022/07/15 10:22:42;;;;;;;2.95;0.40;;;22.90;62.40;;;;;;5034283;28;20132;-64
2022/07/15 10:25:32;;;;;;;3.42;0.45;;;22.90;62.50;;;;;;5032241;28;20124;-63
2022/07/15 10:28:10;;;;;;;2.75;0.52;;;22.90;62.50;;;;;;5033685;28;20057;-63
2022/07/15 10:30:39;;;;;;;4.47;0.45;;;22.90;62.50;;;;;;5033305;28;20094;-64
2022/07/15 10:33:17;;;;;;;2.38;0.40;;;22.90;62.50;;;;;;5033633;28;20577;-63
2022/07/15 10:35:50;;;;;;;3.80;0.65;;;22.80;62.40;;;;;;5033553;28;20045;-63
2022/07/15 10:38:33;;;;;;;3.20;0.50;;;22.90;62.50;;;;;;5032921;28;20049;-63
2022/07/15 10:41:01;;;;;;;1.48;0.40;;;22.90;62.50;;;;;;5033513;28;20056;-64
2022/07/15 10:43:49;;;;;;;3.60;0.88;;;22.90;62.50;;;;;;5033381;28;20049;-64
2022/07/15 10:46:17;;;;;;;;;;;22.90;62.50;;;;;;5033270;28;20103;-63
2022/07/15 10:49:10;;;;;;;6.18;1.00;;;22.90;62.50;;;;;;5033187;28;19968;-64
2022/07/15 10:51:35;;;;;;;9.25;1.38;;;22.90;62.50;;;;;;5032681;28;20209;-64
2022/07/15 10:54:02;;;;;;;5.00;1.25;;;22.90;62.50;;;;;;5033245;28;20448;-63
2022/07/15 10:56:29;;;;;;;6.63;1.20;;;22.80;62.40;;;;;;5032874;28;20045;-63
2022/07/15 10:59:14;;;;;;;6.83;1.43;;;22.90;62.50;;;;;;5032378;28;20100;-63
2022/07/15 11:01:41;;;;;;;7.60;1.33;;;22.90;62.30;;;;;;5033081;28;20120;-64
2022/07/15 11:04:14;;;;;;;5.72;1.20;;;22.90;62.20;;;;;;5033043;28;20504;-64
2022/07/15 11:07:03;;;;;;;6.10;1.00;;;22.90;62.00;;;;;;5032649;28;20080;-64
2022/07/15 11:09:50;;;;;;;5.10;1.30;;;22.90;61.60;;;;;;5032386;28;20059;-64
2022/07/15 11:12:22;;;;;;;3.92;0.98;;;22.90;61.40;;;;;;5033113;28;20053;-64
2022/07/15 11:14:49;;;;;;;5.63;1.05;;;22.90;61.20;;;;;;5032985;28;20041;-64
2022/07/15 11:17:18;;;;;;;6.75;1.33;;;22.90;61.00;;;;;;5031307;28;20119;-64
2022/07/15 11:19:51;;;;;;;6.60;1.20;;;22.90;61.50;;;;;;5031642;28;20452;-64
2022/07/15 11:22:18;;;;;;;5.05;1.15;;;23.00;60.90;;;;;;5033196;28;20073;-64
2022/07/15 11:24:43;;;;;;;5.70;1.20;;;22.90;60.80;;;;;;5032619;28;20440;-64
2022/07/15 11:27:09;;;;;;;7.60;1.23;;;23.00;60.80;;;;;;5031913;28;20049;-64
2022/07/15 11:30:01;;;;;;;8.38;1.00;;;22.90;60.70;;;;;;5032704;28;20103;-64
2022/07/15 11:32:26;;;;;;;4.70;0.75;;;23.00;60.70;;;;;;5033461;28;20405;-65
2022/07/15 11:34:53;;;;;;;3.65;0.60;;;23.00;60.70;;;;;;5031704;28;20058;-64
2022/07/15 11:37:26;;;;;;;3.78;0.80;;;22.90;60.60;;;;;;5033012;28;20046;-64
2022/07/15 11:45:46;;;;;;;4.03;0.80;;;22.90;60.50;;;;;;5032418;28;20049;-64
2022/07/15 11:48:11;;;;;;;4.28;0.73;;;23.00;60.60;;;;;;5031861;28;20056;-64
2022/07/15 11:50:37;;;;;;;3.53;0.73;;;23.00;60.50;;;;;;5032564;28;20037;-64
2022/07/15 11:53:13;;;;;;;3.45;0.70;;;22.90;60.40;;;;;;5030942;28;20396;-64
2022/07/15 11:55:55;;;;;;;4.47;0.73;;;23.00;60.40;;;;;;5031921;28;20034;-64
2022/07/15 11:58:28;;;;;;;3.85;0.90;;;23.00;60.40;;;;;;5032664;28;20053;-63
2022/07/15 12:00:54;;;;;;;5.97;0.60;;;23.00;60.30;;;;;;5031592;28;20171;-64
2022/07/15 12:03:20;;;;;;;3.63;0.55;;;23.00;60.30;;;;;;5031473;28;20088;-63
2022/07/15 12:06:06;;;;;;;4.85;0.60;;;23.00;60.20;;;;;;5031935;28;20523;-63
2022/07/15 12:08:48;;;;;;;5.78;0.82;;;23.00;60.20;;;;;;5032436;28;20045;-64
2022/07/15 12:11:24;;;;;;;3.47;0.70;;;23.00;60.30;;;;;;5032571;28;20049;-64
2022/07/15 12:13:53;;;;;;;6.47;0.70;;;23.00;60.20;;;;;;5032225;28;20053;-64
2022/07/15 12:16:25;;;;;;;3.63;0.50;;;23.00;60.20;;;;;;5030050;28;20478;-64
2022/07/15 12:18:51;;;;;;;4.97;0.73;;;23.00;60.20;;;;;;5032196;28;20091;-64
2022/07/15 12:21:17;;;;;;;5.22;0.90;;;23.00;60.20;;;;;;5031151;28;20053;-64
2022/07/15 12:24:16;;;;;;;1.27;0.40;;;23.00;60.20;;;;;;5013543;28;20046;-64
2022/07/15 12:27:02;;;;;;;3.15;0.80;;;23.10;60.10;;;;;;5031522;28;20493;-65
2022/07/15 12:29:30;;;;;;;4.10;0.70;;;23.10;60.10;;;;;;5032082;28;20084;-64
2022/07/15 12:32:00;;;;;;;1.92;0.50;;;23.10;60.10;;;;;;5032977;28;20053;-64
2022/07/15 12:35:02;;;;;;;4.28;0.60;;;23.10;60.00;;;;;;5036469;28;20045;-64
2022/07/15 12:37:30;;;;;;;3.55;0.70;;;23.10;60.10;;;;;;5032827;28;20042;-64
2022/07/15 12:40:02;;;;;;;5.93;0.60;;;23.10;60.20;;;;;;5035283;28;20092;-63
2022/07/15 12:42:44;;;;;;;3.45;0.80;;;23.10;60.20;;;;;;5035051;28;20053;-63
2022/07/15 12:45:19;;;;;;;2.08;0.50;;;23.10;60.20;;;;;;5034503;28;20120;-64
2022/07/15 12:48:07;;;;;;;2.70;0.50;;;23.10;60.20;;;;;;5033426;28;20048;-63
2022/07/15 12:50:48;;;;;;;3.35;0.60;;;23.10;60.20;;;;;;5032948;28;20037;-64
2022/07/15 12:53:14;;;;;;;2.88;0.68;;;23.10;60.20;;;;;;5033260;28;20056;-64
2022/07/15 12:55:41;;;;;;;3.70;0.90;;;23.10;60.20;;;;;;5035618;28;20041;-64
2022/07/15 12:58:12;;;;;;;3.35;0.47;;;23.10;60.10;;;;;;5034895;28;20446;-64
2022/07/15 13:00:38;;;;;;;2.88;0.60;;;23.20;60.10;;;;;;5035659;28;20072;-64
2022/07/15 13:03:06;;;;;;;3.63;0.50;;;23.20;60.00;;;;;;5035184;28;20121;-64
2022/07/15 13:05:39;;;;;;;3.90;0.63;;;23.20;60.00;;;;;;5034877;28;20512;-63
2022/07/15 13:08:06;;;;;;;2.28;0.82;;;23.20;59.90;;;;;;5035113;28;20497;-63